sensor_id;sensor_type;location;lat;lon;timestamp;pressure;altitude;pressure_sealevel;temperature;humidity
6464;BME280;3265;42.694;23.282;2023-08-30T00:01:29;70622.91;;;-143.21;62.90
6464;BME280;3265;42.694;23.282;2023-08-30T00:03:55;70609.03;;;-143.21;61.67
6464;BME280;3265;42.694;23.282;2023-08-30T00:06:21;70597.13;;;-143.21;61.44
6464;BME280;3265;42.694;23.282;2023-08-30T00:08:49;70595.16;;;-143.21;61.71
6464;BME280;3265;42.694;23.282;2023-08-30T00:11:18;70587.22;;;-143.21;61.69
6464;BME280;3265;42.694;23.282;2023-08-30T00:13:47;70589.22;;;-143.21;61.65
6464;BME280;3265;42.694;23.282;2023-08-30T00:16:14;70599.13;;;-143.21;60.79
6464;BME280;3265;42.694;23.282;2023-08-30T00:18:42;70616.97;;;-143.21;60.89
6464;BME280;3265;42.694;23.282;2023-08-30T00:21:09;70646.69;;;-143.21;61.80
6464;BME280;3265;42.694;23.282;2023-08-30T00:23:36;70684.34;;;-143.21;62.86
6464;BME280;3265;42.694;23.282;2023-08-30T00:26:03;70690.31;;;-143.21;63.60
6464;BME280;3265;42.694;23.282;2023-08-30T00:28:36;70674.44;;;-143.21;63.57
6464;BME280;3265;42.694;23.282;2023-08-30T00:31:04;70660.56;;;-143.21;63.09
6464;BME280;3265;42.694;23.282;2023-08-30T00:33:31;70654.63;;;-143.21;62.81
6464;BME280;3265;42.694;23.282;2023-08-30T00:35:58;70652.66;;;-143.21;62.36
6464;BME280;3265;42.694;23.282;2023-08-30T00:38:26;70650.66;;;-143.21;61.93
6464;BME280;3265;42.694;23.282;2023-08-30T00:40:53;70648.69;;;-143.21;61.75
6464;BME280;3265;42.694;23.282;2023-08-30T00:43:21;70656.59;;;-143.21;61.98
6464;BME280;3265;42.694;23.282;2023-08-30T00:45:48;70678.41;;;-143.21;62.15
6464;BME280;3265;42.694;23.282;2023-08-30T00:48:18;70722.03;;;-143.21;63.04
6464;BME280;3265;42.694;23.282;2023-08-30T00:50:46;70745.81;;;-143.21;63.80
6464;BME280;3265;42.694;23.282;2023-08-30T00:53:14;70765.63;;;-143.21;63.99
6464;BME280;3265;42.694;23.282;2023-08-30T00:55:42;70775.53;;;-143.21;63.76
6464;BME280;3265;42.694;23.282;2023-08-30T00:58:09;70783.47;;;-143.21;63.85
6464;BME280;3265;42.694;23.282;2023-08-30T01:00:37;70807.25;;;-143.21;64.38
6464;BME280;3265;42.694;23.282;2023-08-30T01:03:05;70813.19;;;-143.21;64.21
6464;BME280;3265;42.694;23.282;2023-08-30T01:05:34;70815.19;;;-143.21;64.62
6464;BME280;3265;42.694;23.282;2023-08-30T01:08:01;70817.16;;;-143.21;64.41
6464;BME280;3265;42.694;23.282;2023-08-30T01:10:38;70819.16;;;-143.21;64.67
6464;BME280;3265;42.694;23.282;2023-08-30T01:13:10;70813.19;;;-143.21;64.75
6464;BME280;3265;42.694;23.282;2023-08-30T01:15:40;70821.13;;;-143.21;64.46
6464;BME280;3265;42.694;23.282;2023-08-30T01:18:08;70825.09;;;-143.21;64.33
6464;BME280;3265;42.694;23.282;2023-08-30T01:20:38;70831.03;;;-143.21;64.41
6464;BME280;3265;42.694;23.282;2023-08-30T01:23:09;70815.19;;;-143.21;64.84
6464;BME280;3265;42.694;23.282;2023-08-30T01:25:50;70785.44;;;-143.21;63.48
6464;BME280;3265;42.694;23.282;2023-08-30T01:28:24;70763.66;;;-143.21;62.31
6464;BME280;3265;42.694;23.282;2023-08-30T01:30:54;70761.66;;;-143.21;61.94
6464;BME280;3265;42.694;23.282;2023-08-30T01:33:23;70767.63;;;-143.21;61.96
6464;BME280;3265;42.694;23.282;2023-08-30T01:35:53;70759.69;;;-143.21;62.25
6464;BME280;3265;42.694;23.282;2023-08-30T01:38:21;70739.84;;;-143.21;62.41
6464;BME280;3265;42.694;23.282;2023-08-30T01:40:52;70731.94;;;-143.21;62.07
6464;BME280;3265;42.694;23.282;2023-08-30T01:43:20;70724.00;;;-143.21;61.94
6464;BME280;3265;42.694;23.282;2023-08-30T01:45:49;70718.06;;;-143.21;61.93
6464;BME280;3265;42.694;23.282;2023-08-30T01:48:17;70725.97;;;-143.21;61.15
6464;BME280;3265;42.694;23.282;2023-08-30T01:50:45;70731.94;;;-143.21;61.49
6464;BME280;3265;42.694;23.282;2023-08-30T01:53:13;70731.94;;;-143.21;61.39
6464;BME280;3265;42.694;23.282;2023-08-30T01:55:41;70725.97;;;-143.21;61.18
6464;BME280;3265;42.694;23.282;2023-08-30T01:58:09;70739.84;;;-143.21;61.39
6464;BME280;3265;42.694;23.282;2023-08-30T02:00:36;70749.78;;;-143.21;62.17
6464;BME280;3265;42.694;23.282;2023-08-30T02:03:09;70741.84;;;-143.21;62.38
6464;BME280;3265;42.694;23.282;2023-08-30T02:05:41;70735.91;;;-143.21;61.91
6464;BME280;3265;42.694;23.282;2023-08-30T02:08:13;70720.03;;;-143.21;61.70
6464;BME280;3265;42.694;23.282;2023-08-30T02:10:47;70712.09;;;-143.21;61.22
6464;BME280;3265;42.694;23.282;2023-08-30T02:13:15;70692.28;;;-143.21;60.97
6464;BME280;3265;42.694;23.282;2023-08-30T02:15:45;70702.19;;;-143.21;61.20
6464;BME280;3265;42.694;23.282;2023-08-30T02:18:14;70706.16;;;-143.21;61.09
6464;BME280;3265;42.694;23.282;2023-08-30T02:20:41;70720.03;;;-143.21;61.29
6464;BME280;3265;42.694;23.282;2023-08-30T02:23:09;70731.94;;;-143.21;61.48
6464;BME280;3265;42.694;23.282;2023-08-30T02:25:36;70727.97;;;-143.21;62.00
6464;BME280;3265;42.694;23.282;2023-08-30T02:28:03;70727.97;;;-143.21;62.53
6464;BME280;3265;42.694;23.282;2023-08-30T02:30:31;70727.97;;;-143.21;63.35
6464;BME280;3265;42.694;23.282;2023-08-30T02:32:58;70731.94;;;-143.21;63.69
6464;BME280;3265;42.694;23.282;2023-08-30T02:35:26;70731.94;;;-143.21;63.68
6464;BME280;3265;42.694;23.282;2023-08-30T02:37:53;70737.88;;;-143.21;63.80
6464;BME280;3265;42.694;23.282;2023-08-30T02:40:20;70743.81;;;-143.21;64.06
6464;BME280;3265;42.694;23.282;2023-08-30T02:42:47;70739.84;;;-143.21;63.79
6464;BME280;3265;42.694;23.282;2023-08-30T02:45:14;70745.81;;;-143.21;64.02
6464;BME280;3265;42.694;23.282;2023-08-30T02:47:41;70741.84;;;-143.21;63.68
6464;BME280;3265;42.694;23.282;2023-08-30T02:50:08;70753.72;;;-143.21;63.94
6464;BME280;3265;42.694;23.282;2023-08-30T02:52:36;70765.63;;;-143.21;64.33
6464;BME280;3265;42.694;23.282;2023-08-30T02:55:04;70781.50;;;-143.21;64.76
6464;BME280;3265;42.694;23.282;2023-08-30T02:57:31;70777.53;;;-143.21;64.22
6464;BME280;3265;42.694;23.282;2023-08-30T02:59:57;70783.47;;;-143.21;64.54
6464;BME280;3265;42.694;23.282;2023-08-30T03:02:23;70783.47;;;-143.21;64.56
6464;BME280;3265;42.694;23.282;2023-08-30T03:04:50;70777.53;;;-143.21;64.13
6464;BME280;3265;42.694;23.282;2023-08-30T03:07:17;70793.38;;;-143.21;63.78
6464;BME280;3265;42.694;23.282;2023-08-30T03:09:46;70809.25;;;-143.21;63.72
6464;BME280;3265;42.694;23.282;2023-08-30T03:12:12;70819.16;;;-143.21;63.38
6464;BME280;3265;42.694;23.282;2023-08-30T03:14:39;70831.03;;;-143.21;64.09
6464;BME280;3265;42.694;23.282;2023-08-30T03:17:06;70825.09;;;-143.21;63.28
6464;BME280;3265;42.694;23.282;2023-08-30T03:19:33;70858.78;;;-143.21;63.43
6464;BME280;3265;42.694;23.282;2023-08-30T03:22:00;70876.63;;;-143.21;63.60
6464;BME280;3265;42.694;23.282;2023-08-30T03:24:27;70868.72;;;-143.21;62.88
6464;BME280;3265;42.694;23.282;2023-08-30T03:26:55;70874.66;;;-143.21;63.30
6464;BME280;3265;42.694;23.282;2023-08-30T03:29:22;70860.78;;;-143.21;63.12
6464;BME280;3265;42.694;23.282;2023-08-30T03:31:49;70860.78;;;-143.21;63.12
6464;BME280;3265;42.694;23.282;2023-08-30T03:34:15;70840.97;;;-143.21;62.92
6464;BME280;3265;42.694;23.282;2023-08-30T03:36:42;70827.06;;;-143.21;62.63
6464;BME280;3265;42.694;23.282;2023-08-30T03:39:10;70815.19;;;-143.21;61.86
6464;BME280;3265;42.694;23.282;2023-08-30T03:41:39;70803.28;;;-143.21;61.60
6464;BME280;3265;42.694;23.282;2023-08-30T03:44:07;70787.44;;;-143.21;61.52
6464;BME280;3265;42.694;23.282;2023-08-30T03:46:34;70785.44;;;-143.21;61.28
6464;BME280;3265;42.694;23.282;2023-08-30T03:49:01;70785.44;;;-143.21;61.89
6464;BME280;3265;42.694;23.282;2023-08-30T03:51:29;70787.44;;;-143.21;61.75
6464;BME280;3265;42.694;23.282;2023-08-30T03:53:55;70787.44;;;-143.21;61.23
6464;BME280;3265;42.694;23.282;2023-08-30T03:56:23;70793.38;;;-143.21;60.75
6464;BME280;3265;42.694;23.282;2023-08-30T03:58:49;70783.47;;;-143.21;60.82
6464;BME280;3265;42.694;23.282;2023-08-30T04:01:18;70781.50;;;-143.21;60.83
6464;BME280;3265;42.694;23.282;2023-08-30T04:03:44;70769.59;;;-143.21;59.90
6464;BME280;3265;42.694;23.282;2023-08-30T04:06:11;70763.66;;;-143.21;59.56
6464;BME280;3265;42.694;23.282;2023-08-30T04:08:38;70743.81;;;-143.21;59.54
6464;BME280;3265;42.694;23.282;2023-08-30T04:11:05;70747.78;;;-143.21;59.91
6464;BME280;3265;42.694;23.282;2023-08-30T04:13:32;70743.81;;;-143.21;60.41
6464;BME280;3265;42.694;23.282;2023-08-30T04:16:00;70761.66;;;-143.21;59.98
6464;BME280;3265;42.694;23.282;2023-08-30T04:18:30;70755.72;;;-143.21;59.97
6464;BME280;3265;42.694;23.282;2023-08-30T04:20:58;70757.69;;;-143.21;58.63
6464;BME280;3265;42.694;23.282;2023-08-30T04:23:27;70751.75;;;-143.21;59.10
6464;BME280;3265;42.694;23.282;2023-08-30T04:25:54;70739.84;;;-143.21;59.69
6464;BME280;3265;42.694;23.282;2023-08-30T04:28:21;70741.84;;;-143.21;59.35
6464;BME280;3265;42.694;23.282;2023-08-30T04:30:48;70737.88;;;-143.21;59.65
6464;BME280;3265;42.694;23.282;2023-08-30T04:33:18;70741.84;;;-143.21;59.47
6464;BME280;3265;42.694;23.282;2023-08-30T04:35:51;70765.63;;;-143.21;58.92
6464;BME280;3265;42.694;23.282;2023-08-30T04:38:18;70815.19;;;-143.21;60.34
6464;BME280;3265;42.694;23.282;2023-08-30T04:40:45;70835.00;;;-143.21;60.47
6464;BME280;3265;42.694;23.282;2023-08-30T04:43:12;70803.28;;;-143.21;59.33
6464;BME280;3265;42.694;23.282;2023-08-30T04:45:39;70801.31;;;-143.21;57.65
6464;BME280;3265;42.694;23.282;2023-08-30T04:48:06;70789.41;;;-143.21;57.33
6464;BME280;3265;42.694;23.282;2023-08-30T04:50:33;70799.31;;;-143.21;56.98
6464;BME280;3265;42.694;23.282;2023-08-30T04:53:01;70825.09;;;-143.21;57.82
6464;BME280;3265;42.694;23.282;2023-08-30T04:55:28;70833.03;;;-143.21;58.36
6464;BME280;3265;42.694;23.282;2023-08-30T04:57:57;70838.97;;;-143.21;58.74
6464;BME280;3265;42.694;23.282;2023-08-30T05:00:27;70852.84;;;-143.21;59.91
6464;BME280;3265;42.694;23.282;2023-08-30T05:02:56;70864.75;;;-143.21;60.06
6464;BME280;3265;42.694;23.282;2023-08-30T05:05:23;70902.41;;;-143.21;61.17
6464;BME280;3265;42.694;23.282;2023-08-30T05:07:50;70918.25;;;-143.21;62.07
6464;BME280;3265;42.694;23.282;2023-08-30T05:10:18;70924.22;;;-143.21;62.80
6464;BME280;3265;42.694;23.282;2023-08-30T05:12:45;70949.97;;;-143.21;63.43
6464;BME280;3265;42.694;23.282;2023-08-30T05:15:17;70959.91;;;-143.21;63.51
6464;BME280;3265;42.694;23.282;2023-08-30T05:17:44;70983.69;;;-143.21;63.99
6464;BME280;3265;42.694;23.282;2023-08-30T05:20:11;70993.59;;;-143.21;64.43
6464;BME280;3265;42.694;23.282;2023-08-30T05:22:38;70993.59;;;-143.21;64.28
6464;BME280;3265;42.694;23.282;2023-08-30T05:25:05;70999.53;;;-143.21;64.68
6464;BME280;3265;42.694;23.282;2023-08-30T05:27:34;70993.59;;;-143.21;64.49
6464;BME280;3265;42.694;23.282;2023-08-30T05:30:01;70995.56;;;-143.21;64.42
6464;BME280;3265;42.694;23.282;2023-08-30T05:32:30;70989.63;;;-143.21;64.28
6464;BME280;3265;42.694;23.282;2023-08-30T05:34:58;70983.69;;;-143.21;63.85
6464;BME280;3265;42.694;23.282;2023-08-30T05:37:25;70965.84;;;-143.21;63.75
6464;BME280;3265;42.694;23.282;2023-08-30T05:39:56;70912.31;;;-143.21;62.62
6464;BME280;3265;42.694;23.282;2023-08-30T05:42:23;70884.56;;;-143.21;61.18
6464;BME280;3265;42.694;23.282;2023-08-30T05:44:53;70856.81;;;-143.21;60.68
6464;BME280;3265;42.694;23.282;2023-08-30T05:47:20;70835.00;;;-143.21;59.83
6464;BME280;3265;42.694;23.282;2023-08-30T05:49:47;70842.94;;;-143.21;59.16
6464;BME280;3265;42.694;23.282;2023-08-30T05:52:15;70840.97;;;-143.21;58.95
6464;BME280;3265;42.694;23.282;2023-08-30T05:54:45;70844.91;;;-143.21;58.88
6464;BME280;3265;42.694;23.282;2023-08-30T05:57:12;70840.97;;;-143.21;58.66
6464;BME280;3265;42.694;23.282;2023-08-30T05:59:39;70829.06;;;-143.21;58.60
6464;BME280;3265;42.694;23.282;2023-08-30T06:02:07;70819.16;;;-143.21;58.13
6464;BME280;3265;42.694;23.282;2023-08-30T06:04:39;70813.19;;;-143.21;58.03
6464;BME280;3265;42.694;23.282;2023-08-30T06:07:06;70807.25;;;-143.21;57.55
6464;BME280;3265;42.694;23.282;2023-08-30T06:09:34;70801.31;;;-143.21;57.71
6464;BME280;3265;42.694;23.282;2023-08-30T06:12:04;70781.50;;;-143.21;56.37
6464;BME280;3265;42.694;23.282;2023-08-30T06:14:34;70781.50;;;-143.21;57.29
6464;BME280;3265;42.694;23.282;2023-08-30T06:17:01;70777.53;;;-143.21;57.30
6464;BME280;3265;42.694;23.282;2023-08-30T06:19:30;70731.94;;;-143.21;56.42
6464;BME280;3265;42.694;23.282;2023-08-30T06:21:57;70712.09;;;-143.21;55.61
6464;BME280;3265;42.694;23.282;2023-08-30T06:24:24;70698.22;;;-143.21;55.32
6464;BME280;3265;42.694;23.282;2023-08-30T06:26:51;70704.19;;;-143.21;55.19
6464;BME280;3265;42.694;23.282;2023-08-30T06:29:18;70706.16;;;-143.21;54.85
6464;BME280;3265;42.694;23.282;2023-08-30T06:31:46;70694.25;;;-143.21;54.88
6464;BME280;3265;42.694;23.282;2023-08-30T06:34:13;70694.25;;;-143.21;54.98
6464;BME280;3265;42.694;23.282;2023-08-30T06:36:42;70692.28;;;-143.21;55.23
6464;BME280;3265;42.694;23.282;2023-08-30T06:39:11;70692.28;;;-143.21;55.21
6464;BME280;3265;42.694;23.282;2023-08-30T06:41:38;70696.25;;;-143.21;55.51
6464;BME280;3265;42.694;23.282;2023-08-30T06:44:06;70698.22;;;-143.21;55.86
6464;BME280;3265;42.694;23.282;2023-08-30T06:46:36;70694.25;;;-143.21;56.13
6464;BME280;3265;42.694;23.282;2023-08-30T06:49:05;70658.59;;;-143.21;55.43
6464;BME280;3265;42.694;23.282;2023-08-30T06:51:36;70644.72;;;-143.21;55.42
6464;BME280;3265;42.694;23.282;2023-08-30T06:54:08;70640.75;;;-143.21;55.79
6464;BME280;3265;42.694;23.282;2023-08-30T06:56:34;70644.72;;;-143.21;55.43
6464;BME280;3265;42.694;23.282;2023-08-30T06:59:01;70656.59;;;-143.21;55.63
6464;BME280;3265;42.694;23.282;2023-08-30T07:01:28;70650.66;;;-143.21;55.61
6464;BME280;3265;42.694;23.282;2023-08-30T07:03:55;70652.66;;;-143.21;55.70
6464;BME280;3265;42.694;23.282;2023-08-30T07:06:22;70656.59;;;-143.21;55.51
6464;BME280;3265;42.694;23.282;2023-08-30T07:08:49;70658.59;;;-143.21;55.72
6464;BME280;3265;42.694;23.282;2023-08-30T07:11:18;70644.72;;;-143.21;54.65
6464;BME280;3265;42.694;23.282;2023-08-30T07:13:45;70628.84;;;-143.21;54.56
6464;BME280;3265;42.694;23.282;2023-08-30T07:16:11;70609.03;;;-143.21;54.93
6464;BME280;3265;42.694;23.282;2023-08-30T07:18:38;70587.22;;;-143.21;53.85
6464;BME280;3265;42.694;23.282;2023-08-30T07:21:06;70587.22;;;-143.21;54.09
6464;BME280;3265;42.694;23.282;2023-08-30T07:23:33;70571.38;;;-143.21;53.64
6464;BME280;3265;42.694;23.282;2023-08-30T07:25:59;70567.41;;;-143.21;53.18
6464;BME280;3265;42.694;23.282;2023-08-30T07:28:28;70557.50;;;-143.21;53.32
6464;BME280;3265;42.694;23.282;2023-08-30T07:31:02;70551.56;;;-143.21;53.16
6464;BME280;3265;42.694;23.282;2023-08-30T07:33:29;70557.50;;;-143.21;53.64
6464;BME280;3265;42.694;23.282;2023-08-30T07:35:56;70549.56;;;-143.21;53.19
6464;BME280;3265;42.694;23.282;2023-08-30T07:38:23;70519.84;;;-143.21;52.49
6464;BME280;3265;42.694;23.282;2023-08-30T07:40:49;70519.84;;;-143.21;52.20
6464;BME280;3265;42.694;23.282;2023-08-30T07:43:16;70513.88;;;-143.21;52.59
6464;BME280;3265;42.694;23.282;2023-08-30T07:45:45;70523.81;;;-143.21;52.75
6464;BME280;3265;42.694;23.282;2023-08-30T07:48:12;70515.88;;;-143.21;52.57
6464;BME280;3265;42.694;23.282;2023-08-30T07:50:39;70513.88;;;-143.21;51.78
6464;BME280;3265;42.694;23.282;2023-08-30T07:53:06;70494.06;;;-143.21;51.21
6464;BME280;3265;42.694;23.282;2023-08-30T07:55:33;70490.09;;;-143.21;51.53
6464;BME280;3265;42.694;23.282;2023-08-30T07:57:59;70486.16;;;-143.21;51.57
6464;BME280;3265;42.694;23.282;2023-08-30T08:00:28;70476.22;;;-143.21;51.40
6464;BME280;3265;42.694;23.282;2023-08-30T08:02:57;70476.22;;;-143.21;51.75
6464;BME280;3265;42.694;23.282;2023-08-30T08:05:24;70454.44;;;-143.21;50.27
6464;BME280;3265;42.694;23.282;2023-08-30T08:07:52;70462.34;;;-143.21;49.69
6464;BME280;3265;42.694;23.282;2023-08-30T08:10:20;70462.34;;;-143.21;49.67
6464;BME280;3265;42.694;23.282;2023-08-30T08:12:47;70460.38;;;-143.21;49.84
6464;BME280;3265;42.694;23.282;2023-08-30T08:15:14;70456.41;;;-143.21;50.32
6464;BME280;3265;42.694;23.282;2023-08-30T08:17:41;70456.41;;;-143.21;50.49
6464;BME280;3265;42.694;23.282;2023-08-30T08:20:10;70452.44;;;-143.21;50.53
6464;BME280;3265;42.694;23.282;2023-08-30T08:22:37;70442.53;;;-143.21;49.50
6464;BME280;3265;42.694;23.282;2023-08-30T08:25:04;70422.72;;;-143.21;48.42
6464;BME280;3265;42.694;23.282;2023-08-30T08:27:35;70412.81;;;-143.21;46.39
6464;BME280;3265;42.694;23.282;2023-08-30T08:30:02;70424.69;;;-143.21;47.53
6464;BME280;3265;42.694;23.282;2023-08-30T08:32:30;70434.59;;;-143.21;48.48
6464;BME280;3265;42.694;23.282;2023-08-30T08:34:57;70404.88;;;-143.21;47.72
6464;BME280;3265;42.694;23.282;2023-08-30T08:37:25;70404.88;;;-143.21;47.58
6464;BME280;3265;42.694;23.282;2023-08-30T08:39:53;70420.72;;;-143.21;48.62
6464;BME280;3265;42.694;23.282;2023-08-30T08:42:20;70398.94;;;-143.21;47.96
6464;BME280;3265;42.694;23.282;2023-08-30T08:44:47;70400.91;;;-143.21;48.03
6464;BME280;3265;42.694;23.282;2023-08-30T08:47:19;70367.22;;;-143.21;47.58
6464;BME280;3265;42.694;23.282;2023-08-30T08:49:46;70333.53;;;-143.21;47.24
6464;BME280;3265;42.694;23.282;2023-08-30T08:52:13;70315.69;;;-143.21;47.06
6464;BME280;3265;42.694;23.282;2023-08-30T08:54:42;70299.84;;;-143.21;45.73
6464;BME280;3265;42.694;23.282;2023-08-30T08:57:10;70291.91;;;-143.21;45.36
6464;BME280;3265;42.694;23.282;2023-08-30T08:59:37;70272.09;;;-143.21;45.27
6464;BME280;3265;42.694;23.282;2023-08-30T09:02:04;70262.19;;;-143.21;45.72
6464;BME280;3265;42.694;23.282;2023-08-30T09:04:31;70236.41;;;-143.21;45.38
6464;BME280;3265;42.694;23.282;2023-08-30T09:07:07;70210.63;;;-143.21;44.19
6464;BME280;3265;42.694;23.282;2023-08-30T09:09:54;70198.75;;;-143.21;44.68
6464;BME280;3265;42.694;23.282;2023-08-30T09:12:34;70188.84;;;-143.21;44.07
6464;BME280;3265;42.694;23.282;2023-08-30T09:15:02;70182.91;;;-143.21;43.73
6464;BME280;3265;42.694;23.282;2023-08-30T09:17:36;70186.84;;;-143.21;44.08
6464;BME280;3265;42.694;23.282;2023-08-30T09:20:10;70218.56;;;-143.21;44.52
6464;BME280;3265;42.694;23.282;2023-08-30T09:22:38;70264.16;;;-143.21;45.24
6464;BME280;3265;42.694;23.282;2023-08-30T09:25:09;70266.13;;;-143.21;45.55
6464;BME280;3265;42.694;23.282;2023-08-30T09:27:37;70252.25;;;-143.21;45.52
6464;BME280;3265;42.694;23.282;2023-08-30T09:30:07;70224.50;;;-143.21;45.45
6464;BME280;3265;42.694;23.282;2023-08-30T09:32:40;70222.53;;;-143.21;44.91
6464;BME280;3265;42.694;23.282;2023-08-30T09:35:09;70210.63;;;-143.21;44.89
6464;BME280;3265;42.694;23.282;2023-08-30T09:37:36;70208.66;;;-143.21;44.48
6464;BME280;3265;42.694;23.282;2023-08-30T09:40:04;70214.59;;;-143.21;44.62
6464;BME280;3265;42.694;23.282;2023-08-30T09:42:32;70202.72;;;-143.21;44.65
6464;BME280;3265;42.694;23.282;2023-08-30T09:44:59;70190.81;;;-143.21;44.97
6464;BME280;3265;42.694;23.282;2023-08-30T09:47:27;70178.94;;;-143.21;44.88
6464;BME280;3265;42.694;23.282;2023-08-30T09:49:55;70165.06;;;-143.21;44.98
6464;BME280;3265;42.694;23.282;2023-08-30T09:52:24;70137.31;;;-143.21;44.34
6464;BME280;3265;42.694;23.282;2023-08-30T09:54:52;70113.53;;;-143.21;43.38
6464;BME280;3265;42.694;23.282;2023-08-30T09:57:20;70093.72;;;-143.21;43.25
6464;BME280;3265;42.694;23.282;2023-08-30T09:59:50;70093.72;;;-143.21;42.70
6464;BME280;3265;42.694;23.282;2023-08-30T10:02:17;70085.78;;;-143.21;42.70
6464;BME280;3265;42.694;23.282;2023-08-30T10:04:45;70054.06;;;-143.21;42.33
6464;BME280;3265;42.694;23.282;2023-08-30T10:07:13;70018.41;;;-143.21;41.68
6464;BME280;3265;42.694;23.282;2023-08-30T10:09:41;69976.78;;;-143.21;41.09
6464;BME280;3265;42.694;23.282;2023-08-30T10:12:10;69925.25;;;-143.21;40.90
6464;BME280;3265;42.694;23.282;2023-08-30T10:14:37;69889.59;;;-143.21;38.73
6464;BME280;3265;42.694;23.282;2023-08-30T10:17:05;69871.75;;;-143.21;38.78
6464;BME280;3265;42.694;23.282;2023-08-30T10:19:37;69865.81;;;-143.21;38.63
6464;BME280;3265;42.694;23.282;2023-08-30T10:22:05;69865.81;;;-143.21;39.05
6464;BME280;3265;42.694;23.282;2023-08-30T10:24:38;69899.50;;;-143.21;38.73
6464;BME280;3265;42.694;23.282;2023-08-30T10:27:07;69909.41;;;-143.21;39.00
6464;BME280;3265;42.694;23.282;2023-08-30T10:29:35;69893.53;;;-143.21;39.21
6464;BME280;3265;42.694;23.282;2023-08-30T10:32:05;69873.72;;;-143.21;38.63
6464;BME280;3265;42.694;23.282;2023-08-30T10:34:40;69885.63;;;-143.21;38.56
6464;BME280;3265;42.694;23.282;2023-08-30T10:37:08;69905.44;;;-143.21;38.76
6464;BME280;3265;42.694;23.282;2023-08-30T10:39:36;69893.53;;;-143.21;38.92
6464;BME280;3265;42.694;23.282;2023-08-30T10:42:10;69869.78;;;-143.21;38.71
6464;BME280;3265;42.694;23.282;2023-08-30T10:44:47;69861.84;;;-143.21;37.77
6464;BME280;3265;42.694;23.282;2023-08-30T10:47:24;69859.84;;;-143.21;38.44
6464;BME280;3265;42.694;23.282;2023-08-30T10:49:53;69816.25;;;-143.21;38.33
6464;BME280;3265;42.694;23.282;2023-08-30T10:52:21;69806.34;;;-143.21;37.79
6464;BME280;3265;42.694;23.282;2023-08-30T10:54:48;69804.38;;;-143.21;37.35
6464;BME280;3265;42.694;23.282;2023-08-30T10:57:18;69804.38;;;-143.21;37.68
6464;BME280;3265;42.694;23.282;2023-08-30T11:00:03;69806.34;;;-143.21;36.32
6464;BME280;3265;42.694;23.282;2023-08-30T11:02:35;69820.22;;;-143.21;34.97
6464;BME280;3265;42.694;23.282;2023-08-30T11:05:03;69838.06;;;-143.21;35.39
6464;BME280;3265;42.694;23.282;2023-08-30T11:07:56;69828.16;;;-143.21;34.90
6464;BME280;3265;42.694;23.282;2023-08-30T11:10:34;69822.22;;;-143.21;34.27
6464;BME280;3265;42.694;23.282;2023-08-30T11:13:03;69828.16;;;-143.21;34.40
6464;BME280;3265;42.694;23.282;2023-08-30T11:15:33;69826.16;;;-143.21;33.63
6464;BME280;3265;42.694;23.282;2023-08-30T11:18:12;69814.28;;;-143.21;33.21
6464;BME280;3265;42.694;23.282;2023-08-30T11:20:44;69778.59;;;-143.21;31.53
6464;BME280;3265;42.694;23.282;2023-08-30T11:23:21;69782.56;;;-143.21;31.57
6464;BME280;3265;42.694;23.282;2023-08-30T11:25:53;69762.75;;;-143.21;31.29
6464;BME280;3265;42.694;23.282;2023-08-30T11:28:23;69727.09;;;-143.21;29.88
6464;BME280;3265;42.694;23.282;2023-08-30T11:31:02;69711.22;;;-143.21;29.57
6464;BME280;3265;42.694;23.282;2023-08-30T11:33:37;69707.28;;;-143.21;29.22
6464;BME280;3265;42.694;23.282;2023-08-30T11:36:10;69675.56;;;-143.21;29.12
6464;BME280;3265;42.694;23.282;2023-08-30T11:38:40;69637.91;;;-143.21;28.99
6464;BME280;3265;42.694;23.282;2023-08-30T11:41:07;69649.81;;;-143.21;29.21
6464;BME280;3265;42.694;23.282;2023-08-30T11:43:38;69631.97;;;-143.21;29.30
6464;BME280;3265;42.694;23.282;2023-08-30T11:46:08;69614.13;;;-143.21;29.42
6464;BME280;3265;42.694;23.282;2023-08-30T11:48:40;69574.50;;;-143.21;29.23
6464;BME280;3265;42.694;23.282;2023-08-30T11:51:09;69564.59;;;-143.21;28.33
6464;BME280;3265;42.694;23.282;2023-08-30T11:53:41;69586.38;;;-143.21;28.69
6464;BME280;3265;42.694;23.282;2023-08-30T11:56:15;69588.38;;;-143.21;27.84
6464;BME280;3265;42.694;23.282;2023-08-30T11:58:47;69590.34;;;-143.21;28.47
6464;BME280;3265;42.694;23.282;2023-08-30T12:01:22;69574.50;;;-143.21;28.69
6464;BME280;3265;42.694;23.282;2023-08-30T12:03:56;69556.66;;;-143.21;28.48
6464;BME280;3265;42.694;23.282;2023-08-30T12:06:26;69538.84;;;-143.21;28.60
6464;BME280;3265;42.694;23.282;2023-08-30T12:09:03;69513.06;;;-143.21;27.88
6464;BME280;3265;42.694;23.282;2023-08-30T12:11:50;69467.50;;;-143.21;28.00
6464;BME280;3265;42.694;23.282;2023-08-30T12:14:19;69429.84;;;-143.21;27.38
6464;BME280;3265;42.694;23.282;2023-08-30T12:16:47;69429.84;;;-143.21;26.81
6464;BME280;3265;42.694;23.282;2023-08-30T12:19:15;69449.66;;;-143.21;26.66
6464;BME280;3265;42.694;23.282;2023-08-30T12:21:44;69453.63;;;-143.21;26.47
6464;BME280;3265;42.694;23.282;2023-08-30T12:24:14;69433.81;;;-143.21;26.55
6464;BME280;3265;42.694;23.282;2023-08-30T12:26:41;69394.19;;;-143.21;26.16
6464;BME280;3265;42.694;23.282;2023-08-30T12:29:10;69404.09;;;-143.21;26.58
6464;BME280;3265;42.694;23.282;2023-08-30T12:31:40;69382.28;;;-143.21;26.00
6464;BME280;3265;42.694;23.282;2023-08-30T12:34:08;69382.28;;;-143.21;26.27
6464;BME280;3265;42.694;23.282;2023-08-30T12:36:44;69362.47;;;-143.21;25.09
6464;BME280;3265;42.694;23.282;2023-08-30T12:39:12;69358.53;;;-143.21;25.24
6464;BME280;3265;42.694;23.282;2023-08-30T12:41:43;69326.81;;;-143.21;25.05
6464;BME280;3265;42.694;23.282;2023-08-30T12:44:12;69308.97;;;-143.21;24.64
6464;BME280;3265;42.694;23.282;2023-08-30T12:46:39;69293.13;;;-143.21;24.61
6464;BME280;3265;42.694;23.282;2023-08-30T12:49:06;69299.06;;;-143.21;24.58
6464;BME280;3265;42.694;23.282;2023-08-30T12:51:36;69318.88;;;-143.21;24.37
6464;BME280;3265;42.694;23.282;2023-08-30T12:54:06;69342.66;;;-143.21;24.50
6464;BME280;3265;42.694;23.282;2023-08-30T12:56:35;69334.75;;;-143.21;24.80
6464;BME280;3265;42.694;23.282;2023-08-30T12:59:02;69340.69;;;-143.21;25.44